createdAt,value
2017-03-13T00:00:18.139Z,0
2017-03-13T00:01:18.051Z,0
2017-03-13T00:02:18.018Z,0
2017-03-13T00:03:18.317Z,0
2017-03-13T00:04:18.272Z,0
2017-03-13T00:05:18.187Z,0
2017-03-13T00:06:18.151Z,0
2017-03-13T00:07:18.076Z,0
2017-03-13T00:08:18.002Z,0
2017-03-13T00:09:17.990Z,0
2017-03-13T00:10:17.876Z,0
2017-03-13T00:11:17.820Z,0
2017-03-13T00:12:17.760Z,0
2017-03-13T00:13:17.701Z,0
2017-03-13T00:14:17.643Z,0
2017-03-13T00:15:17.602Z,0
2017-03-13T00:16:17.520Z,0
2017-03-13T00:17:17.470Z,0
2017-03-13T00:18:17.399Z,0
2017-03-13T00:19:17.343Z,0
2017-03-13T00:20:17.286Z,0
2017-03-13T00:21:17.209Z,0
2017-03-13T00:22:17.147Z,0
2017-03-13T00:23:17.078Z,0
2017-03-13T00:24:17.006Z,0
2017-03-13T00:25:16.962Z,0
2017-03-13T00:26:16.504Z,0
2017-03-13T00:27:16.858Z,0
2017-03-13T00:28:16.784Z,0
2017-03-13T00:29:16.708Z,0
2017-03-13T00:30:16.646Z,0
2017-03-13T00:31:16.601Z,0
2017-03-13T00:32:16.515Z,0
2017-03-13T00:33:16.484Z,0
2017-03-13T00:34:16.015Z,0
2017-03-13T00:35:15.559Z,0
2017-03-13T00:36:16.279Z,0
2017-03-13T00:37:16.212Z,0
2017-03-13T00:38:15.763Z,0
2017-03-13T00:39:16.131Z,0
2017-03-13T00:40:15.658Z,0
2017-03-13T00:41:15.965Z,0
2017-03-13T00:42:15.908Z,0
2017-03-13T00:43:15.867Z,0
2017-03-13T00:44:15.776Z,0
2017-03-13T00:45:15.758Z,0
2017-03-13T00:46:15.643Z,0
2017-03-13T00:47:15.620Z,0
2017-03-13T00:48:15.554Z,0
2017-03-13T00:49:15.460Z,0
2017-03-13T00:50:15.404Z,0
2017-03-13T00:51:15.440Z,0
2017-03-13T00:52:15.292Z,0
2017-03-13T00:53:15.211Z,0
2017-03-13T00:54:15.397Z,0
2017-03-13T00:55:15.101Z,0
2017-03-13T00:56:15.022Z,0
2017-03-13T00:57:14.967Z,0
2017-03-13T00:58:14.922Z,0
2017-03-13T00:59:14.842Z,0
2017-03-13T01:01:18.136Z,0
2017-03-13T01:02:17.766Z,0
2017-03-13T01:03:17.725Z,0
2017-03-13T01:04:17.650Z,0
2017-03-13T01:05:17.471Z,0
2017-03-13T01:06:17.803Z,0
2017-03-13T01:07:17.457Z,0
2017-03-13T01:08:17.447Z,0
2017-03-13T01:09:16.953Z,0
2017-03-13T01:10:17.272Z,0
2017-03-13T01:11:17.793Z,0
2017-03-13T01:12:16.762Z,0
2017-03-13T01:13:17.098Z,0
2017-03-13T01:14:17.022Z,0
2017-03-13T01:15:16.967Z,0
2017-03-13T01:16:16.902Z,0
2017-03-13T01:17:17.110Z,0
2017-03-13T01:18:16.446Z,0
2017-03-13T01:19:17.015Z,0
2017-03-13T01:20:16.665Z,0
2017-03-13T01:21:16.592Z,0
2017-03-13T01:22:16.194Z,0
2017-03-13T01:23:16.468Z,0
2017-03-13T01:24:17.287Z,0
2017-03-13T01:25:16.249Z,0
2017-03-13T01:26:16.228Z,0
2017-03-13T01:27:15.733Z,0
2017-03-13T01:28:16.433Z,0
2017-03-13T01:29:16.090Z,0
2017-03-13T01:30:16.036Z,0
2017-03-13T01:31:15.967Z,0
2017-03-13T01:32:15.898Z,0
2017-03-13T01:33:15.837Z,0
2017-03-13T01:34:15.794Z,0
2017-03-13T01:35:15.726Z,0
2017-03-13T01:36:15.665Z,0
2017-03-13T01:37:15.484Z,0
2017-03-13T01:38:16.410Z,0
2017-03-13T01:39:15.749Z,0
2017-03-13T01:40:15.413Z,0
2017-03-13T01:41:15.343Z,0
2017-03-13T01:42:15.284Z,0
2017-03-13T01:43:15.209Z,0
2017-03-13T01:44:14.795Z,0
2017-03-13T01:45:15.111Z,0
2017-03-13T01:46:14.644Z,0
2017-03-13T01:47:14.971Z,0
2017-03-13T01:48:14.508Z,0
2017-03-13T01:49:14.853Z,0
2017-03-13T01:50:14.785Z,0
2017-03-13T01:51:14.733Z,0
2017-03-13T01:52:14.272Z,0
2017-03-13T01:53:14.608Z,0
2017-03-13T01:54:14.531Z,0
2017-03-13T01:55:14.475Z,0
2017-03-13T01:56:14.428Z,0
2017-03-13T01:57:14.698Z,0
2017-03-13T01:58:13.509Z,0
2017-03-13T01:59:14.251Z,0
2017-03-13T02:00:14.178Z,0
2017-03-13T02:01:14.122Z,0
2017-03-13T02:02:13.659Z,0
2017-03-13T02:03:13.979Z,0
2017-03-13T02:04:13.918Z,0
2017-03-13T02:05:14.007Z,0
2017-03-13T02:06:13.403Z,0
2017-03-13T02:07:13.342Z,0
2017-03-13T02:08:13.289Z,0
2017-03-13T02:09:13.889Z,0
2017-03-13T02:10:13.640Z,0
2017-03-13T02:11:13.775Z,0
2017-03-13T02:12:13.430Z,0
2017-03-13T02:13:13.650Z,0
2017-03-13T02:14:13.597Z,0
2017-03-13T02:15:13.540Z,0
2017-03-13T02:16:13.173Z,0
2017-03-13T02:17:13.110Z,0
2017-03-13T02:18:12.276Z,0
2017-03-13T02:19:12.997Z,0
2017-03-13T02:20:12.927Z,0
2017-03-13T02:21:12.876Z,0
2017-03-13T02:22:12.816Z,0
2017-03-13T02:23:12.762Z,0
2017-03-13T02:24:12.304Z,0
2017-03-13T02:25:12.613Z,0
2017-03-13T02:26:12.859Z,0
2017-03-13T02:27:12.497Z,0
2017-03-13T02:28:12.042Z,0
2017-03-13T02:29:12.376Z,0
2017-03-13T02:30:11.898Z,0
2017-03-13T02:31:12.239Z,0
2017-03-13T02:32:12.796Z,0
2017-03-13T02:33:12.700Z,0
2017-03-13T02:34:12.335Z,0
2017-03-13T02:35:12.000Z,0
2017-03-13T02:36:11.930Z,0
2017-03-13T02:37:12.173Z,0
2017-03-13T02:38:11.813Z,0
2017-03-13T02:39:11.747Z,0
2017-03-13T02:40:11.679Z,0
2017-03-13T02:41:11.910Z,0
2017-03-13T02:42:11.585Z,0
2017-03-13T02:43:11.519Z,0
2017-03-13T02:44:11.450Z,0
2017-03-13T02:45:11.368Z,0
2017-03-13T02:46:11.604Z,0
2017-03-13T02:47:10.922Z,0
2017-03-13T02:48:11.493Z,0
2017-03-13T02:49:11.119Z,0
2017-03-13T02:50:10.955Z,0
2017-03-13T02:51:10.621Z,0
2017-03-13T02:52:10.555Z,0
2017-03-13T02:53:10.085Z,0
2017-03-13T02:54:10.822Z,0
2017-03-13T02:55:10.784Z,0
2017-03-13T02:56:10.683Z,0
2017-03-13T02:57:10.233Z,0
2017-03-13T02:58:10.070Z,0
2017-03-13T02:59:10.797Z,0
2017-03-13T03:00:10.457Z,0
2017-03-13T03:01:10.375Z,0
2017-03-13T03:02:10.345Z,0
2017-03-13T03:03:10.254Z,0
2017-03-13T03:04:10.480Z,0
2017-03-13T03:05:10.154Z,0
2017-03-13T03:06:10.070Z,0
2017-03-13T03:07:10.319Z,0
2017-03-13T03:08:10.251Z,0
2017-03-13T03:09:10.195Z,0
2017-03-13T03:10:09.818Z,0
2017-03-13T03:11:09.402Z,0
2017-03-13T03:12:09.312Z,0
2017-03-13T03:13:09.934Z,0
2017-03-13T03:14:09.566Z,0
2017-03-13T03:15:09.794Z,0
2017-03-13T03:16:09.758Z,0
2017-03-13T03:17:09.388Z,0
2017-03-13T03:18:09.335Z,0
2017-03-13T03:19:09.265Z,0
2017-03-13T03:20:08.811Z,0
2017-03-13T03:21:09.442Z,0
2017-03-13T03:22:08.741Z,0
2017-03-13T03:23:09.014Z,0
2017-03-13T03:24:08.965Z,0
2017-03-13T03:25:08.909Z,0
2017-03-13T03:26:08.834Z,0
2017-03-13T03:27:08.771Z,0
2017-03-13T03:28:08.613Z,0
2017-03-13T03:29:08.656Z,0
2017-03-13T03:30:08.878Z,0
2017-03-13T03:31:08.803Z,0
2017-03-13T03:32:08.369Z,0
2017-03-13T03:33:08.405Z,0
2017-03-13T03:34:08.332Z,0
2017-03-13T03:35:08.168Z,0
2017-03-13T03:36:07.503Z,0
2017-03-13T03:37:08.453Z,0
2017-03-13T03:38:08.114Z,0
2017-03-13T03:39:08.034Z,0
2017-03-13T03:40:07.927Z,0
2017-03-13T03:41:07.899Z,0
2017-03-13T03:42:08.144Z,0
2017-03-13T03:43:07.387Z,0
2017-03-13T03:44:08.017Z,0
2017-03-13T03:45:07.673Z,0
2017-03-13T03:46:07.197Z,0
2017-03-13T03:47:07.822Z,0
2017-03-13T03:48:07.773Z,0
2017-03-13T03:49:07.402Z,0
2017-03-13T03:50:07.360Z,0
2017-03-13T03:51:07.568Z,0
2017-03-13T03:52:07.226Z,0
2017-03-13T03:53:07.472Z,0
2017-03-13T03:54:07.089Z,0
2017-03-13T03:55:06.716Z,0
2017-03-13T03:56:07.542Z,0
2017-03-13T03:57:06.922Z,0
2017-03-13T03:58:06.760Z,0
2017-03-13T03:59:06.808Z,0
2017-03-13T04:00:06.454Z,0
2017-03-13T04:01:06.958Z,0
2017-03-13T04:02:06.627Z,0
2017-03-13T04:03:06.548Z,0
2017-03-13T04:04:06.770Z,0
2017-03-13T04:05:06.728Z,0
2017-03-13T04:06:06.346Z,0
2017-03-13T04:07:05.917Z,0
2017-03-13T04:08:06.225Z,0
2017-03-13T04:09:06.343Z,0
2017-03-13T04:10:05.705Z,0
2017-03-13T04:11:06.048Z,0
2017-03-13T04:12:06.268Z,0
2017-03-13T04:13:05.919Z,0
2017-03-13T04:14:05.665Z,0
2017-03-13T04:15:05.388Z,0
2017-03-13T04:16:05.723Z,0
2017-03-13T04:17:05.689Z,0
2017-03-13T04:18:05.906Z,0
2017-03-13T04:19:05.681Z,0
2017-03-13T04:20:05.487Z,0
2017-03-13T04:21:05.435Z,0
2017-03-13T04:22:05.375Z,0
2017-03-13T04:23:05.309Z,0
2017-03-13T04:24:05.238Z,0
2017-03-13T04:25:05.190Z,0
2017-03-13T04:26:05.123Z,0
2017-03-13T04:27:05.013Z,0
2017-03-13T04:28:05.001Z,0
2017-03-13T04:29:04.936Z,0
2017-03-13T04:30:04.871Z,0
2017-03-13T04:31:04.802Z,0
2017-03-13T04:32:04.739Z,0
2017-03-13T04:33:04.672Z,0
2017-03-13T04:34:04.890Z,0
2017-03-13T04:35:04.540Z,0
2017-03-13T04:36:04.501Z,0
2017-03-13T04:37:04.415Z,0
2017-03-13T04:38:04.645Z,0
2017-03-13T04:39:04.294Z,0
2017-03-13T04:40:04.332Z,0
2017-03-13T04:41:04.742Z,0
2017-03-13T04:42:04.104Z,0
2017-03-13T04:43:04.059Z,0
2017-03-13T04:44:04.025Z,0
2017-03-13T04:45:03.157Z,0
2017-03-13T04:46:03.761Z,0
2017-03-13T04:47:03.793Z,0
2017-03-13T04:48:03.753Z,0
2017-03-13T04:49:03.967Z,0
2017-03-13T04:50:03.632Z,0
2017-03-13T04:51:03.846Z,0
2017-03-13T04:52:03.781Z,0
2017-03-13T04:53:03.360Z,0
2017-03-13T04:54:03.359Z,0
2017-03-13T04:55:03.353Z,0
2017-03-13T04:56:02.840Z,0
2017-03-13T04:57:03.460Z,0
2017-03-13T04:58:03.405Z,0
2017-03-13T04:59:03.073Z,0
2017-03-13T05:00:03.371Z,0
2017-03-13T05:01:02.924Z,0
2017-03-13T05:02:03.167Z,0
2017-03-13T05:03:02.813Z,0
2017-03-13T05:04:02.744Z,0
2017-03-13T05:05:02.684Z,0
2017-03-13T05:06:02.249Z,0
2017-03-13T05:07:02.877Z,0
2017-03-13T05:08:02.491Z,0
2017-03-13T05:09:02.432Z,0
2017-03-13T05:10:02.385Z,0
2017-03-13T05:11:02.586Z,0
2017-03-13T05:12:02.288Z,0
2017-03-13T05:13:02.192Z,0
2017-03-13T05:14:02.133Z,0
2017-03-13T05:15:02.055Z,0
2017-03-13T05:16:02.018Z,0
2017-03-13T05:17:01.962Z,0
2017-03-13T05:18:01.881Z,0
2017-03-13T05:19:01.823Z,0
2017-03-13T05:20:01.768Z,0
2017-03-13T05:21:01.686Z,0
2017-03-13T05:22:01.629Z,0
2017-03-13T05:23:01.569Z,0
2017-03-13T05:24:01.519Z,0
2017-03-13T05:25:01.055Z,0
2017-03-13T05:26:01.659Z,0
2017-03-13T05:27:01.308Z,0
2017-03-13T05:28:01.275Z,0
2017-03-13T05:29:01.196Z,0
2017-03-13T05:30:01.139Z,0
2017-03-13T05:31:01.449Z,0
2017-03-13T05:32:01.018Z,0
2017-03-13T05:33:00.943Z,0
2017-03-13T05:34:00.886Z,0
2017-03-13T05:35:00.813Z,0
2017-03-13T05:36:00.751Z,0
2017-03-13T05:37:00.695Z,0
2017-03-13T05:38:01.530Z,0
2017-03-13T05:39:00.571Z,0
2017-03-13T05:40:00.549Z,0
2017-03-13T05:41:00.448Z,0
2017-03-13T05:42:00.380Z,0
2017-03-13T05:43:00.334Z,0
2017-03-13T05:44:00.276Z,0
2017-03-13T05:45:00.197Z,0
2017-03-13T05:46:00.432Z,0
2017-03-13T05:46:59.687Z,0
2017-03-13T05:48:00.024Z,0
2017-03-13T05:48:59.573Z,0
2017-03-13T05:49:59.506Z,0
2017-03-13T05:50:59.840Z,0
2017-03-13T05:52:00.051Z,0
2017-03-13T05:52:59.697Z,0
2017-03-13T05:53:59.648Z,0
2017-03-13T05:54:59.574Z,0
2017-03-13T05:55:59.522Z,0
2017-03-13T05:56:59.455Z,4
2017-03-13T05:57:59.684Z,4
2017-03-13T05:58:59.324Z,4
2017-03-13T05:59:58.944Z,4
2017-03-13T06:00:59.357Z,4
2017-03-13T06:01:59.172Z,4
2017-03-13T06:02:59.380Z,4
2017-03-13T06:03:59.023Z,4
2017-03-13T06:04:59.242Z,4
2017-03-13T06:05:59.183Z,4
2017-03-13T06:06:59.122Z,0
2017-03-13T06:07:59.045Z,0
2017-03-13T06:08:58.318Z,0
2017-03-13T06:09:58.947Z,4
2017-03-13T06:10:58.185Z,4
2017-03-13T06:11:58.517Z,4
2017-03-13T06:12:58.128Z,4
2017-03-13T06:13:58.402Z,4
2017-03-13T06:14:57.946Z,4
2017-03-13T06:15:58.273Z,4
2017-03-13T06:16:58.209Z,4
2017-03-13T06:17:58.039Z,4
2017-03-13T06:18:58.365Z,4
2017-03-13T06:19:58.032Z,4
2017-03-13T06:20:57.981Z,4
2017-03-13T06:21:57.894Z,0
2017-03-13T06:22:57.862Z,0
2017-03-13T06:23:57.774Z,4
2017-03-13T06:24:57.722Z,4
2017-03-13T06:25:57.646Z,4
2017-03-13T06:26:57.585Z,4
2017-03-13T06:27:57.125Z,4
2017-03-13T06:28:57.070Z,4
2017-03-13T06:29:57.015Z,4
2017-03-13T06:30:57.345Z,4
2017-03-13T06:31:57.272Z,4
2017-03-13T06:32:57.506Z,4
2017-03-13T06:33:57.150Z,12
2017-03-13T06:34:57.099Z,12
2017-03-13T06:35:57.069Z,12
2017-03-13T06:36:57.278Z,16
2017-03-13T06:37:56.528Z,16
2017-03-13T06:38:57.157Z,12
2017-03-13T06:39:57.079Z,12
2017-03-13T06:40:56.717Z,8
2017-03-13T06:41:56.676Z,12
2017-03-13T06:42:56.191Z,8
2017-03-13T06:43:56.819Z,8
2017-03-13T06:44:56.777Z,12
2017-03-13T06:45:56.446Z,12
2017-03-13T06:46:56.358Z,8
2017-03-13T06:47:56.301Z,8
2017-03-13T06:48:56.535Z,8
2017-03-13T06:49:56.179Z,12
2017-03-13T06:50:56.111Z,8
2017-03-13T06:51:56.033Z,8
2017-03-13T06:52:56.247Z,8
2017-03-13T06:53:56.183Z,8
2017-03-13T06:54:55.983Z,8
2017-03-13T06:55:55.995Z,8
2017-03-13T06:56:55.227Z,8
2017-03-13T06:57:55.653Z,8
2017-03-13T06:58:55.212Z,8
2017-03-13T06:59:55.547Z,8
2017-03-13T07:00:55.463Z,8
2017-03-13T07:01:55.421Z,8
2017-03-13T07:02:55.648Z,8
2017-03-13T07:03:55.283Z,8
2017-03-13T07:04:55.227Z,8
2017-03-13T07:05:55.449Z,8
2017-03-13T07:06:55.090Z,8
2017-03-13T07:07:55.030Z,4
2017-03-13T07:08:54.977Z,8
2017-03-13T07:09:55.192Z,8
2017-03-13T07:10:55.147Z,8
2017-03-13T07:11:55.078Z,12
2017-03-13T07:12:54.718Z,8
2017-03-13T07:13:54.658Z,12
2017-03-13T07:14:54.613Z,8
2017-03-13T07:15:54.538Z,12
2017-03-13T07:16:54.382Z,12
2017-03-13T07:17:54.412Z,8
2017-03-13T07:18:54.347Z,12
2017-03-13T07:19:54.293Z,12
2017-03-13T07:20:54.235Z,12
2017-03-13T07:21:54.163Z,12
2017-03-13T07:22:54.082Z,12
2017-03-13T07:23:53.644Z,12
2017-03-13T07:24:53.985Z,16
2017-03-13T07:25:53.913Z,12
2017-03-13T07:26:53.073Z,12
2017-03-13T07:27:53.837Z,16
2017-03-13T07:28:53.393Z,16
2017-03-13T07:29:53.339Z,16
2017-03-13T07:30:52.815Z,16
2017-03-13T07:31:53.534Z,20
2017-03-13T07:32:53.487Z,16
2017-03-13T07:33:53.017Z,24
2017-03-13T07:34:53.347Z,24
2017-03-13T07:35:53.288Z,24
2017-03-13T07:36:53.253Z,20
2017-03-13T07:37:52.789Z,20
2017-03-13T07:38:53.405Z,20
2017-03-13T07:39:53.044Z,24
2017-03-13T07:40:52.582Z,28
2017-03-13T07:41:52.925Z,24
2017-03-13T07:42:53.145Z,20
2017-03-13T07:43:52.790Z,16
2017-03-13T07:44:52.727Z,16
2017-03-13T07:45:52.894Z,12
2017-03-13T07:46:52.623Z,16
2017-03-13T07:47:52.851Z,20
2017-03-13T07:48:52.489Z,16
2017-03-13T07:49:51.236Z,20
2017-03-13T07:50:52.615Z,16
2017-03-13T07:51:52.290Z,16
2017-03-13T07:52:51.902Z,20
2017-03-13T07:53:51.772Z,20
2017-03-13T07:54:52.116Z,20
2017-03-13T07:55:52.170Z,16
2017-03-13T07:56:51.601Z,16
2017-03-13T07:57:51.916Z,20
2017-03-13T07:58:51.469Z,20
2017-03-13T07:59:51.810Z,16
2017-03-13T08:00:51.341Z,16
2017-03-13T08:01:51.648Z,16
2017-03-13T08:02:51.601Z,20
2017-03-13T08:03:51.849Z,24
2017-03-13T08:04:51.493Z,24
2017-03-13T08:05:51.047Z,20
2017-03-13T08:06:51.381Z,16
2017-03-13T08:07:51.294Z,16
2017-03-13T08:08:51.549Z,12
2017-03-13T08:09:51.186Z,12
2017-03-13T08:10:51.411Z,12
2017-03-13T08:11:51.385Z,12
2017-03-13T08:12:51.004Z,12
2017-03-13T08:13:51.221Z,12
2017-03-13T08:14:50.474Z,12
2017-03-13T08:15:51.087Z,12
2017-03-13T08:16:50.350Z,12
2017-03-13T08:17:50.679Z,12
2017-03-13T08:18:50.621Z,12
2017-03-13T08:19:50.547Z,12
2017-03-13T08:20:50.482Z,12
2017-03-13T08:21:50.442Z,12
2017-03-13T08:22:50.366Z,12
2017-03-13T08:23:49.935Z,12
2017-03-13T08:24:50.252Z,12
2017-03-13T08:25:50.179Z,12
2017-03-13T08:26:50.147Z,12
2017-03-13T08:27:50.340Z,12
2017-03-13T08:28:50.008Z,12
2017-03-13T08:29:49.925Z,88
2017-03-13T08:30:49.887Z,120
2017-03-13T08:31:49.819Z,140
2017-03-13T08:32:50.008Z,144
2017-03-13T08:33:49.834Z,144
2017-03-13T08:34:49.025Z,144
2017-03-13T08:35:49.572Z,140
2017-03-13T08:36:49.386Z,140
2017-03-13T08:37:49.441Z,144
2017-03-13T08:38:49.368Z,140
2017-03-13T08:39:49.309Z,140
2017-03-13T08:40:48.867Z,140
2017-03-13T08:41:49.324Z,140
2017-03-13T08:42:49.376Z,136
2017-03-13T08:43:49.139Z,140
2017-03-13T08:44:49.291Z,140
2017-03-13T08:45:49.220Z,140
2017-03-13T08:46:48.874Z,140
2017-03-13T08:47:48.827Z,140
2017-03-13T08:48:49.030Z,140
2017-03-13T08:49:48.699Z,140
2017-03-13T08:50:48.925Z,140
2017-03-13T08:51:48.878Z,140
2017-03-13T08:52:48.519Z,140
2017-03-13T08:53:48.719Z,136
2017-03-13T08:54:48.366Z,140
2017-03-13T08:55:48.613Z,140
2017-03-13T08:56:48.541Z,140
2017-03-13T08:57:47.467Z,140
2017-03-13T08:58:48.493Z,140
2017-03-13T08:59:48.075Z,140
2017-03-13T09:00:48.017Z,140
2017-03-13T09:01:48.232Z,140
2017-03-13T09:02:48.204Z,140
2017-03-13T09:03:47.839Z,140
2017-03-13T09:04:47.768Z,16
2017-03-13T09:05:47.805Z,20
2017-03-13T09:06:47.630Z,16
2017-03-13T09:07:47.572Z,16
2017-03-13T09:08:47.618Z,20
2017-03-13T09:09:47.878Z,16
2017-03-13T09:10:47.047Z,16
2017-03-13T09:11:47.630Z,20
2017-03-13T09:12:47.658Z,20
2017-03-13T09:13:47.211Z,16
2017-03-13T09:14:47.286Z,16
2017-03-13T09:15:47.009Z,16
2017-03-13T09:16:47.041Z,16
2017-03-13T09:17:47.193Z,20
2017-03-13T09:18:46.496Z,16
2017-03-13T09:19:46.850Z,20
2017-03-13T09:20:47.045Z,16
2017-03-13T09:21:46.735Z,16
2017-03-13T09:22:46.518Z,16
2017-03-13T09:23:46.605Z,16
2017-03-13T09:24:46.527Z,16
2017-03-13T09:25:46.480Z,16
2017-03-13T09:26:46.399Z,20
2017-03-13T09:27:45.946Z,16
2017-03-13T09:28:46.269Z,16
2017-03-13T09:29:45.890Z,16
2017-03-13T09:30:46.000Z,16
2017-03-13T09:31:46.102Z,16
2017-03-13T09:32:45.639Z,16
2017-03-13T09:33:45.571Z,16
2017-03-13T09:34:45.909Z,16
2017-03-13T09:35:45.449Z,100
2017-03-13T09:36:46.071Z,132
2017-03-13T09:37:45.713Z,144
2017-03-13T09:38:45.817Z,144
2017-03-13T09:39:48.543Z,144
2017-03-13T09:40:45.563Z,144
2017-03-13T09:41:45.682Z,140
2017-03-13T09:42:45.424Z,140
2017-03-13T09:43:45.561Z,140
2017-03-13T09:44:45.283Z,140
2017-03-13T09:45:45.071Z,140
2017-03-13T09:46:45.441Z,140
2017-03-13T09:47:45.398Z,136
2017-03-13T09:48:45.038Z,136
2017-03-13T09:49:45.286Z,136
2017-03-13T09:50:45.168Z,136
2017-03-13T09:51:44.906Z,136
2017-03-13T09:52:44.794Z,136
2017-03-13T09:53:44.851Z,136
2017-03-13T09:54:44.964Z,136
2017-03-13T09:55:44.959Z,136
2017-03-13T09:56:44.537Z,136
2017-03-13T09:57:44.754Z,136
2017-03-13T09:58:44.421Z,136
2017-03-13T09:59:44.350Z,136
2017-03-13T10:00:44.581Z,136
2017-03-13T10:01:44.222Z,136
2017-03-13T10:02:44.182Z,136
2017-03-13T10:03:44.738Z,136
2017-03-13T10:04:43.334Z,136
2017-03-13T10:05:43.840Z,136
2017-03-13T10:06:44.567Z,136
2017-03-13T10:07:44.019Z,136
2017-03-13T10:08:43.808Z,136
2017-03-13T10:09:43.729Z,140
2017-03-13T10:10:44.295Z,136
2017-03-13T10:11:43.717Z,136
2017-03-13T10:12:43.551Z,136
2017-03-13T10:13:43.790Z,136
2017-03-13T10:14:43.036Z,136
2017-03-13T10:15:43.365Z,140
2017-03-13T10:16:43.617Z,136
2017-03-13T10:17:43.252Z,136
2017-03-13T10:18:43.184Z,136
2017-03-13T10:19:43.121Z,136
2017-03-13T10:20:43.054Z,140
2017-03-13T10:21:43.438Z,136
2017-03-13T10:22:42.962Z,136
2017-03-13T10:23:42.869Z,136
2017-03-13T10:24:42.821Z,136
2017-03-13T10:25:42.352Z,136
2017-03-13T10:26:42.712Z,136
2017-03-13T10:27:42.230Z,136
2017-03-13T10:28:42.567Z,136
2017-03-13T10:29:42.494Z,136
2017-03-13T10:30:42.471Z,136
2017-03-13T10:31:42.165Z,136
2017-03-13T10:32:42.224Z,136
2017-03-13T10:33:42.758Z,136
2017-03-13T10:34:42.496Z,136
2017-03-13T10:35:41.931Z,136
2017-03-13T10:36:42.103Z,140
2017-03-13T10:37:42.023Z,136
2017-03-13T10:38:41.597Z,136
2017-03-13T10:39:42.037Z,136
2017-03-13T10:40:41.844Z,136
2017-03-13T10:41:41.411Z,136
2017-03-13T10:42:41.714Z,136
2017-03-13T10:43:41.648Z,136
2017-03-13T10:44:41.584Z,140
2017-03-13T10:45:41.559Z,20
2017-03-13T10:46:41.763Z,16
2017-03-13T10:47:41.719Z,20
2017-03-13T10:48:41.362Z,20
2017-03-13T10:49:41.442Z,20
2017-03-13T10:50:41.522Z,20
2017-03-13T10:51:40.767Z,20
2017-03-13T10:52:41.295Z,20
2017-03-13T10:53:41.057Z,20
2017-03-13T10:54:41.224Z,20
2017-03-13T10:55:40.905Z,20
2017-03-13T10:56:40.444Z,20
2017-03-13T10:57:40.791Z,20
2017-03-13T10:58:40.332Z,20
2017-03-13T10:59:40.659Z,20
2017-03-13T11:00:41.249Z,16
2017-03-13T11:01:40.544Z,16
2017-03-13T11:02:40.487Z,20
2017-03-13T11:03:40.405Z,20
2017-03-13T11:04:39.984Z,20
2017-03-13T11:05:40.321Z,20
2017-03-13T11:06:39.820Z,20
2017-03-13T11:07:39.787Z,20
2017-03-13T11:08:39.771Z,16
2017-03-13T11:09:40.342Z,20
2017-03-13T11:10:40.003Z,16
2017-03-13T11:11:39.957Z,20
2017-03-13T11:12:39.480Z,20
2017-03-13T11:13:39.753Z,20
2017-03-13T11:14:39.740Z,20
2017-03-13T11:15:39.685Z,20
2017-03-13T11:16:39.629Z,16
2017-03-13T11:17:39.198Z,16
2017-03-13T11:18:39.500Z,20
2017-03-13T11:19:39.435Z,20
2017-03-13T11:20:38.994Z,20
2017-03-13T11:21:39.324Z,20
2017-03-13T11:22:38.860Z,20
2017-03-13T11:23:38.816Z,20
2017-03-13T11:24:39.118Z,20
2017-03-13T11:25:39.404Z,20
2017-03-13T11:26:39.006Z,20
2017-03-13T11:27:38.939Z,16
2017-03-13T11:28:38.873Z,16
2017-03-13T11:29:38.827Z,16
2017-03-13T11:30:39.084Z,16
2017-03-13T11:31:38.706Z,16
2017-03-13T11:32:38.639Z,16
2017-03-13T11:33:38.866Z,16
2017-03-13T11:34:38.526Z,16
2017-03-13T11:35:38.454Z,16
2017-03-13T11:36:37.999Z,16
2017-03-13T11:37:38.354Z,16
2017-03-13T11:38:38.609Z,16
2017-03-13T11:39:38.241Z,20
2017-03-13T11:40:38.429Z,20
2017-03-13T11:41:38.686Z,20
2017-03-13T11:42:38.083Z,20
2017-03-13T11:43:37.956Z,20
2017-03-13T11:44:37.929Z,20
2017-03-13T11:45:37.831Z,20
2017-03-13T11:46:37.828Z,20
2017-03-13T11:47:37.322Z,20
2017-03-13T11:48:37.949Z,20
2017-03-13T11:49:37.551Z,20
2017-03-13T11:50:37.533Z,20
2017-03-13T11:51:37.467Z,20
2017-03-13T11:52:37.022Z,16
2017-03-13T11:53:36.979Z,16
2017-03-13T11:54:37.590Z,16
2017-03-13T11:55:37.131Z,16
2017-03-13T11:56:36.771Z,16
2017-03-13T11:57:37.089Z,16
2017-03-13T11:58:37.031Z,16
2017-03-13T11:59:36.822Z,16
2017-03-13T12:00:37.087Z,16
2017-03-13T12:01:36.860Z,16
2017-03-13T12:02:36.410Z,20
2017-03-13T12:03:37.017Z,20
2017-03-13T12:04:36.683Z,16
2017-03-13T12:05:36.885Z,20
2017-03-13T12:06:36.556Z,16
2017-03-13T12:07:36.469Z,16
2017-03-13T12:08:36.435Z,16
2017-03-13T12:09:36.669Z,16
2017-03-13T12:10:35.752Z,16
2017-03-13T12:11:36.235Z,16
2017-03-13T12:12:36.175Z,16
2017-03-13T12:13:36.107Z,16
2017-03-13T12:14:36.051Z,16
2017-03-13T12:15:35.994Z,16
2017-03-13T12:16:35.928Z,16
2017-03-13T12:17:36.183Z,16
2017-03-13T12:18:35.418Z,16
2017-03-13T12:19:35.762Z,16
2017-03-13T12:20:36.315Z,16
2017-03-13T12:21:35.627Z,16
2017-03-13T12:22:35.162Z,16
2017-03-13T12:23:35.656Z,16
2017-03-13T12:24:35.431Z,20
2017-03-13T12:25:35.714Z,20
2017-03-13T12:26:35.325Z,16
2017-03-13T12:27:34.852Z,16
2017-03-13T12:28:34.807Z,16
2017-03-13T12:29:34.340Z,16
2017-03-13T12:30:35.086Z,16
2017-03-13T12:31:34.225Z,16
2017-03-13T12:32:34.177Z,16
2017-03-13T12:33:34.785Z,16
2017-03-13T12:34:34.812Z,16
2017-03-13T12:35:34.024Z,16
2017-03-13T12:36:33.906Z,16
2017-03-13T12:37:34.135Z,16
2017-03-13T12:38:34.587Z,20
2017-03-13T12:39:34.107Z,16
2017-03-13T12:40:33.852Z,16
2017-03-13T12:41:34.394Z,16
2017-03-13T12:42:34.005Z,16
2017-03-13T12:43:33.879Z,16
2017-03-13T12:44:34.114Z,16
2017-03-13T12:45:33.853Z,16
2017-03-13T12:46:33.310Z,16
2017-03-13T12:47:33.628Z,16
2017-03-13T12:48:33.958Z,16
2017-03-13T12:49:33.910Z,16
2017-03-13T12:50:33.845Z,16
2017-03-13T12:51:33.385Z,16
2017-03-13T12:54:15.009Z,16
2017-03-13T12:54:25.701Z,16
2017-03-13T12:55:25.650Z,16
2017-03-13T12:56:26.068Z,16
2017-03-13T12:57:25.121Z,16
2017-03-13T12:58:25.498Z,16
2017-03-13T12:59:25.394Z,16
2017-03-13T13:00:25.310Z,16
2017-03-13T13:01:25.157Z,16
2017-03-13T13:02:24.392Z,16
2017-03-13T13:03:25.119Z,16
2017-03-13T13:04:25.054Z,16
2017-03-13T13:05:25.007Z,16
2017-03-13T13:06:24.936Z,16
2017-03-13T13:07:24.882Z,16
2017-03-13T13:08:24.809Z,12
2017-03-13T13:09:25.038Z,12
2017-03-13T13:10:24.838Z,12
2017-03-13T13:11:24.278Z,12
2017-03-13T13:12:24.168Z,12
2017-03-13T13:13:24.398Z,12
2017-03-13T13:14:24.633Z,12
2017-03-13T13:15:24.480Z,12
2017-03-13T13:16:23.913Z,12
2017-03-13T13:17:23.861Z,12
2017-03-13T13:18:24.194Z,12
2017-03-13T13:19:24.132Z,12
2017-03-13T13:20:24.355Z,12
2017-03-13T13:21:24.008Z,12
2017-03-13T13:22:24.255Z,12
2017-03-13T13:23:24.169Z,12
2017-03-13T13:24:23.822Z,12
2017-03-13T13:25:22.974Z,12
2017-03-13T13:26:24.007Z,84
2017-03-13T13:27:24.274Z,124
2017-03-13T13:28:23.574Z,140
2017-03-13T13:29:22.736Z,144
2017-03-13T13:30:23.464Z,144
2017-03-13T13:31:23.388Z,144
2017-03-13T13:32:23.333Z,140
2017-03-13T13:33:23.268Z,144
2017-03-13T13:34:22.815Z,144
2017-03-13T13:35:23.142Z,144
2017-03-13T13:36:23.085Z,140
2017-03-13T13:37:23.171Z,140
2017-03-13T13:38:22.568Z,140
2017-03-13T13:39:22.505Z,136
2017-03-13T13:40:22.840Z,136
2017-03-13T13:41:22.380Z,136
2017-03-13T13:42:22.566Z,136
2017-03-13T13:43:22.260Z,140
2017-03-13T13:44:22.604Z,140
2017-03-13T13:45:22.533Z,140
2017-03-13T13:46:22.773Z,140
2017-03-13T13:47:22.008Z,140
2017-03-13T13:48:22.339Z,136
2017-03-13T13:49:22.579Z,136
2017-03-13T13:50:22.233Z,136
2017-03-13T13:51:22.157Z,136
2017-03-13T13:52:22.107Z,136
2017-03-13T13:53:21.638Z,136
2017-03-13T13:54:22.273Z,136
2017-03-13T13:55:21.914Z,136
2017-03-13T13:56:21.852Z,136
2017-03-13T13:57:21.790Z,136
2017-03-13T13:58:22.033Z,136
2017-03-13T13:59:21.958Z,136
2017-03-13T14:00:21.605Z,136
2017-03-13T14:01:21.542Z,140
2017-03-13T14:02:21.476Z,136
2017-03-13T14:03:21.660Z,140
2017-03-13T14:04:21.361Z,140
2017-03-13T14:05:21.289Z,140
2017-03-13T14:06:20.836Z,136
2017-03-13T14:07:20.773Z,136
2017-03-13T14:08:20.868Z,136
2017-03-13T14:09:21.347Z,140
2017-03-13T14:10:20.983Z,136
2017-03-13T14:11:21.208Z,132
2017-03-13T14:12:20.863Z,136
2017-03-13T14:13:21.384Z,136
2017-03-13T14:14:20.354Z,136
2017-03-13T14:15:20.681Z,136
2017-03-13T14:16:20.609Z,136
2017-03-13T14:17:20.561Z,136
2017-03-13T14:18:20.094Z,136
2017-03-13T14:19:20.429Z,136
2017-03-13T14:20:20.666Z,132
2017-03-13T14:21:20.308Z,136
2017-03-13T14:22:19.066Z,132
2017-03-13T14:23:20.473Z,132
2017-03-13T14:24:20.705Z,132
2017-03-13T14:25:20.163Z,132